Time;durP1;ratioP1;P1;durP2;ratioP2;P2;SDS_P1;SDS_P2;PMS_P1;PMS_P2;Temp;Humidity;BMP_temperature;BMP_pressure;BME280_temperature;BME280_humidity;BME280_pressure;Samples;Min_cycle;Max_cycle;Signal;HPM_P1;HPM_P2
2023/07/07 00:01:04;;;;;;;3.75;1.55;;;13.70;99.90;;;;;;5058040;28;20119;-73
2023/07/07 00:03:30;;;;;;;5.32;2.00;;;13.70;99.90;;;;;;5069862;28;20032;-73
2023/07/07 00:05:56;;;;;;;5.15;1.92;;;13.70;99.90;;;;;;5054170;28;20041;-73
2023/07/07 00:08:22;;;;;;;2.63;1.30;;;13.60;99.90;;;;;;5056152;28;20036;-73
2023/07/07 00:10:48;;;;;;;3.53;1.52;;;13.60;99.90;;;;;;5058028;28;20586;-73
2023/07/07 00:13:15;;;;;;;4.50;1.58;;;13.60;99.90;;;;;;5072080;28;20127;-73
2023/07/07 00:15:44;;;;;;;2.30;1.20;;;13.60;99.90;;;;;;5037911;28;20037;-73
2023/07/07 00:18:12;;;;;;;2.25;1.27;;;13.60;99.90;;;;;;5037962;28;20486;-73
2023/07/07 00:20:37;;;;;;;2.22;1.25;;;13.60;99.90;;;;;;5037934;28;20041;-73
2023/07/07 00:23:03;;;;;;;3.90;1.50;;;13.50;99.90;;;;;;5055295;28;20037;-73
2023/07/07 00:25:28;;;;;;;2.83;1.52;;;13.50;99.90;;;;;;5057144;28;20033;-73
2023/07/07 00:27:54;;;;;;;3.75;1.70;;;13.50;99.90;;;;;;5055848;28;20074;-73
2023/07/07 00:30:20;;;;;;;3.92;1.88;;;13.40;99.90;;;;;;5074360;28;20080;-73
2023/07/07 00:32:45;;;;;;;5.35;1.77;;;13.40;99.90;;;;;;5074160;28;20507;-72
2023/07/07 00:35:11;;;;;;;3.75;1.70;;;13.40;99.90;;;;;;5070450;28;20040;-73
2023/07/07 00:37:37;;;;;;;4.05;2.08;;;13.40;99.90;;;;;;5074365;28;20028;-73
2023/07/07 00:40:03;;;;;;;5.03;2.03;;;13.40;99.90;;;;;;5057426;28;20405;-73
2023/07/07 00:42:30;;;;;;;5.25;2.10;;;13.40;99.90;;;;;;5057213;28;20033;-73
2023/07/07 00:45:16;;;;;;;4.10;1.60;;;13.40;99.90;;;;;;5056328;28;20036;-73
2023/07/07 00:47:54;;;;;;;3.58;1.40;;;13.40;99.90;;;;;;5046671;28;20474;-73
2023/07/07 00:50:24;;;;;;;3.45;1.30;;;13.30;99.90;;;;;;5054071;28;20445;-73
2023/07/07 00:52:50;;;;;;;2.90;1.50;;;13.30;99.90;;;;;;5070492;28;20501;-73
2023/07/07 00:55:30;;;;;;;1.65;1.10;;;13.30;99.90;;;;;;5038684;28;20087;-73
2023/07/07 00:57:55;;;;;;;2.80;1.02;;;13.20;99.90;;;;;;5048726;28;20040;-74
2023/07/07 01:00:21;;;;;;;1.80;1.10;;;13.20;99.90;;;;;;5038646;28;21532;-73
2023/07/07 01:02:53;;;;;;;5.32;1.20;;;13.10;99.90;;;;;;5074954;28;20094;-72
2023/07/07 01:05:21;;;;;;;2.17;1.23;;;13.10;99.90;;;;;;5072392;28;20072;-73
2023/07/07 01:07:51;;;;;;;1.60;1.00;;;13.00;99.90;;;;;;5072618;28;20037;-72
2023/07/07 01:10:18;;;;;;;1.65;0.90;;;13.00;99.90;;;;;;5073595;28;20515;-72
2023/07/07 01:12:45;;;;;;;0.95;0.80;;;13.00;99.90;;;;;;5071082;28;20124;-72
2023/07/07 01:15:11;;;;;;;2.17;0.80;;;12.90;99.90;;;;;;5073387;28;20496;-73
2023/07/07 01:18:22;;;;;;;1.65;0.80;;;12.90;99.90;;;;;;5068094;28;20031;-73
2023/07/07 01:21:03;;;;;;;3.13;0.93;;;12.80;99.90;;;;;;5036164;28;20068;-72
2023/07/07 01:24:02;;;;;;;2.88;0.90;;;12.80;99.90;;;;;;5036844;28;20481;-72
2023/07/07 01:27:12;;;;;;;1.52;0.80;;;12.70;99.90;;;;;;5041240;28;20046;-72
2023/07/07 01:29:50;;;;;;;2.85;0.85;;;12.60;99.90;;;;;;5041701;28;20424;-73
2023/07/07 01:32:23;;;;;;;2.53;1.10;;;12.50;99.90;;;;;;5040242;28;20110;-73
2023/07/07 01:34:48;;;;;;;1.70;1.02;;;12.50;99.90;;;;;;5070204;28;20075;-72
2023/07/07 01:37:14;;;;;;;1.40;1.10;;;12.40;99.90;;;;;;5035429;28;20118;-73
2023/07/07 01:39:42;;;;;;;2.38;1.10;;;12.40;99.90;;;;;;5042320;28;20491;-73
2023/07/07 01:42:15;;;;;;;2.67;1.50;;;12.40;99.90;;;;;;5079600;28;20400;-72
2023/07/07 01:45:05;;;;;;;3.03;1.20;;;12.30;99.90;;;;;;5061680;28;20043;-72
2023/07/07 01:47:37;;;;;;;1.85;0.82;;;12.20;99.90;;;;;;5035717;28;20074;-73
2023/07/07 01:50:25;;;;;;;1.63;0.90;;;12.20;99.90;;;;;;5066186;28;20045;-72
2023/07/07 01:52:54;;;;;;;1.00;0.90;;;12.10;99.90;;;;;;5053458;28;20123;-72
2023/07/07 01:55:25;;;;;;;2.08;1.00;;;12.10;99.90;;;;;;5055846;28;20683;-72
2023/07/07 01:58:03;;;;;;;2.38;1.00;;;12.20;99.90;;;;;;5054729;28;20029;-73
2023/07/07 02:00:30;;;;;;;2.50;1.30;;;12.20;99.90;;;;;;5072252;28;20043;-73
2023/07/07 02:02:58;;;;;;;3.55;1.48;;;12.20;99.90;;;;;;5054347;28;20072;-73
2023/07/07 02:05:24;;;;;;;3.22;1.60;;;12.00;99.90;;;;;;5054330;28;20115;-73
2023/07/07 02:07:50;;;;;;;5.45;1.77;;;12.10;99.90;;;;;;5073661;28;20036;-73
2023/07/07 02:10:16;;;;;;;3.08;1.40;;;12.10;99.90;;;;;;5054592;28;20094;-73
2023/07/07 02:12:41;;;;;;;3.35;1.45;;;12.10;99.90;;;;;;5078973;28;20516;-73
2023/07/07 02:15:07;;;;;;;3.53;1.30;;;12.10;99.90;;;;;;5076401;28;20044;-73
2023/07/07 02:17:33;;;;;;;3.72;1.70;;;12.10;99.90;;;;;;5069129;28;20484;-73
2023/07/07 02:19:59;;;;;;;3.05;1.40;;;12.10;99.90;;;;;;5068543;28;20041;-72
2023/07/07 02:22:25;;;;;;;1.70;1.02;;;12.10;99.90;;;;;;5068254;28;20493;-72
2023/07/07 02:24:51;;;;;;;4.05;1.27;;;12.10;99.90;;;;;;5056758;28;20535;-73
2023/07/07 02:27:17;;;;;;;2.75;1.35;;;12.10;99.90;;;;;;5051897;28;20037;-73
2023/07/07 02:29:42;;;;;;;1.90;1.17;;;12.10;99.90;;;;;;5065239;28;20080;-73
2023/07/07 02:32:08;;;;;;;2.30;1.13;;;12.10;99.90;;;;;;5046440;28;20116;-73
2023/07/07 02:34:35;;;;;;;1.85;0.90;;;12.10;99.90;;;;;;5041905;28;20497;-73
2023/07/07 02:37:01;;;;;;;1.80;0.88;;;12.10;99.90;;;;;;5054639;28;20504;-73
2023/07/07 02:39:27;;;;;;;3.67;1.10;;;12.00;99.90;;;;;;5055253;28;20078;-73
2023/07/07 02:41:53;;;;;;;2.20;1.20;;;12.00;99.90;;;;;;5054199;28;20170;-73
2023/07/07 02:44:19;;;;;;;3.38;1.40;;;11.90;99.90;;;;;;5051041;28;20119;-73
2023/07/07 02:46:44;;;;;;;3.53;1.60;;;12.00;99.90;;;;;;5051891;28;20186;-73
2023/07/07 02:49:11;;;;;;;4.35;2.13;;;11.90;99.90;;;;;;5064224;28;20542;-73
2023/07/07 02:51:36;;;;;;;5.82;2.17;;;11.90;99.90;;;;;;5069610;28;20036;-73
2023/07/07 02:54:02;;;;;;;4.43;2.13;;;11.90;99.90;;;;;;5071835;28;20169;-73
2023/07/07 02:56:28;;;;;;;5.35;3.10;;;11.90;99.90;;;;;;5072070;28;20032;-73
2023/07/07 02:58:54;;;;;;;6.05;3.28;;;11.90;99.90;;;;;;5053173;28;20036;-73
2023/07/07 03:01:20;;;;;;;8.50;3.70;;;12.00;99.90;;;;;;5072011;28;20566;-73
2023/07/07 03:03:50;;;;;;;9.18;4.30;;;12.00;99.90;;;;;;5053512;28;20522;-73
2023/07/07 03:06:19;;;;;;;7.82;4.30;;;12.00;99.90;;;;;;5070777;28;20377;-73
2023/07/07 03:08:45;;;;;;;9.27;4.35;;;12.00;99.90;;;;;;5072820;28;20049;-73
2023/07/07 03:11:14;;;;;;;8.52;4.80;;;12.00;99.90;;;;;;5053862;28;20552;-73
2023/07/07 03:13:40;;;;;;;10.13;5.53;;;12.00;99.90;;;;;;5071704;28;20049;-73
2023/07/07 03:16:21;;;;;;;8.85;5.47;;;12.00;99.90;;;;;;5070900;28;20366;-73
2023/07/07 03:18:50;;;;;;;9.13;5.90;;;12.00;99.90;;;;;;5068943;28;20033;-73
2023/07/07 03:21:17;;;;;;;9.57;5.22;;;12.00;99.90;;;;;;5061483;28;20082;-73
2023/07/07 03:23:43;;;;;;;8.85;5.32;;;12.00;99.90;;;;;;5069321;28;20037;-73
2023/07/07 03:26:11;;;;;;;10.30;5.72;;;12.00;99.90;;;;;;5066143;28;20067;-73
2023/07/07 03:28:37;;;;;;;8.52;5.88;;;12.10;99.90;;;;;;5051776;28;20060;-73
2023/07/07 03:31:22;;;;;;;10.27;6.68;;;12.10;99.90;;;;;;5087623;28;20115;-73
2023/07/07 03:33:48;;;;;;;11.98;6.80;;;12.10;99.90;;;;;;5062396;28;20129;-73
2023/07/07 03:36:14;;;;;;;10.90;7.07;;;12.10;99.90;;;;;;5055215;28;20041;-73
2023/07/07 03:38:40;;;;;;;9.75;6.55;;;12.10;99.90;;;;;;5070663;28;20033;-73
2023/07/07 03:41:10;;;;;;;10.38;6.72;;;12.10;99.90;;;;;;5075379;28;20439;-73
2023/07/07 03:43:37;;;;;;;13.15;7.30;;;12.10;99.90;;;;;;5074480;28;20158;-73
2023/07/07 03:46:04;;;;;;;9.82;6.55;;;12.10;99.90;;;;;;5074056;28;20044;-73
2023/07/07 03:48:30;;;;;;;9.57;7.15;;;12.10;99.90;;;;;;5055578;28;20040;-73
2023/07/07 03:51:01;;;;;;;10.63;7.03;;;12.10;99.90;;;;;;5058325;28;20396;-73
2023/07/07 03:53:28;;;;;;;10.70;6.93;;;12.10;99.90;;;;;;5074361;28;20385;-73
2023/07/07 03:55:54;;;;;;;11.95;7.45;;;12.20;99.90;;;;;;5067486;28;20408;-73
2023/07/07 03:58:20;;;;;;;10.02;7.38;;;12.20;99.90;;;;;;5065645;28;20036;-73
2023/07/07 04:00:46;;;;;;;11.35;7.55;;;12.20;99.90;;;;;;5071371;28;20045;-73
2023/07/07 04:03:13;;;;;;;12.88;8.00;;;12.20;99.90;;;;;;5062339;28;20558;-73
2023/07/07 04:05:43;;;;;;;11.57;7.63;;;12.20;99.90;;;;;;5053527;28;20041;-73
2023/07/07 04:08:08;;;;;;;9.65;7.18;;;12.20;99.90;;;;;;5071664;28;20408;-73
2023/07/07 04:10:34;;;;;;;10.40;7.82;;;12.20;99.90;;;;;;5055181;28;20040;-73
2023/07/07 04:13:00;;;;;;;13.18;8.70;;;12.20;99.90;;;;;;5071655;28;20041;-73
2023/07/07 04:15:26;;;;;;;12.15;8.35;;;12.20;99.90;;;;;;5072285;28;20044;-73
2023/07/07 04:17:51;;;;;;;12.70;8.98;;;12.30;99.90;;;;;;5064284;28;20405;-73
2023/07/07 04:20:17;;;;;;;10.88;7.70;;;12.30;99.90;;;;;;5075835;28;20111;-73
2023/07/07 04:22:42;;;;;;;11.20;8.00;;;12.30;99.90;;;;;;5050326;28;20035;-73
2023/07/07 04:25:13;;;;;;;12.13;8.65;;;12.30;99.90;;;;;;5073623;28;20152;-73
2023/07/07 04:27:39;;;;;;;13.40;8.85;;;12.40;99.90;;;;;;5070258;28;20060;-73
2023/07/07 04:30:05;;;;;;;12.50;9.32;;;12.40;99.90;;;;;;5068450;28;20051;-73
2023/07/07 04:32:32;;;;;;;12.00;9.00;;;12.50;99.90;;;;;;5054191;28;20047;-73
2023/07/07 04:34:59;;;;;;;14.88;10.70;;;12.40;99.90;;;;;;5068463;28;20040;-73
2023/07/07 04:37:25;;;;;;;14.85;9.63;;;12.50;99.90;;;;;;5049805;28;20118;-73
2023/07/07 04:39:51;;;;;;;13.27;9.85;;;12.60;99.90;;;;;;5074135;28;20071;-73
2023/07/07 04:42:17;;;;;;;14.55;10.30;;;12.60;99.90;;;;;;5072502;28;20500;-73
2023/07/07 04:44:42;;;;;;;12.95;9.75;;;12.70;99.90;;;;;;5074011;28;20067;-73
2023/07/07 04:47:08;;;;;;;16.63;10.75;;;12.70;99.90;;;;;;5076132;28;20094;-73
2023/07/07 04:49:34;;;;;;;16.65;11.68;;;12.80;99.90;;;;;;5073064;28;20043;-73
2023/07/07 04:51:59;;;;;;;18.65;12.82;;;12.90;99.90;;;;;;5057225;28;20043;-73
2023/07/07 04:54:25;;;;;;;17.92;12.52;;;13.00;99.90;;;;;;5073712;28;20113;-73
2023/07/07 04:56:50;;;;;;;17.38;12.30;;;13.10;99.90;;;;;;5073908;28;20123;-73
2023/07/07 04:59:16;;;;;;;15.27;12.20;;;13.30;99.90;;;;;;5070900;28;20434;-73
2023/07/07 05:01:44;;;;;;;17.90;13.07;;;13.30;99.90;;;;;;5071641;28;20047;-73
2023/07/07 05:04:10;;;;;;;15.63;12.52;;;13.40;99.90;;;;;;5056249;28;20075;-73
2023/07/07 05:06:38;;;;;;;18.20;12.68;;;13.40;99.90;;;;;;5054481;28;20089;-73
2023/07/07 05:09:05;;;;;;;19.15;13.43;;;13.50;99.90;;;;;;5053575;28;20072;-73
2023/07/07 05:11:32;;;;;;;17.70;13.38;;;13.60;99.90;;;;;;5053586;28;20485;-73
2023/07/07 05:13:58;;;;;;;17.33;12.60;;;13.60;99.90;;;;;;5056861;28;20041;-73
2023/07/07 05:16:26;;;;;;;16.70;12.95;;;13.60;99.90;;;;;;5074606;28;20028;-73
2023/07/07 05:18:53;;;;;;;20.30;13.25;;;13.70;99.90;;;;;;5054634;28;20047;-73
2023/07/07 05:21:21;;;;;;;18.80;13.43;;;13.90;99.90;;;;;;5072203;28;20056;-73
2023/07/07 05:23:47;;;;;;;20.20;13.98;;;14.10;99.90;;;;;;5074476;28;20056;-73
2023/07/07 05:26:13;;;;;;;21.35;14.95;;;14.20;99.90;;;;;;5055613;28;20992;-73
2023/07/07 05:28:39;;;;;;;18.85;14.07;;;14.20;99.90;;;;;;5072159;28;20101;-73
2023/07/07 05:31:07;;;;;;;17.65;13.75;;;14.30;99.90;;;;;;5074434;28;20040;-73
2023/07/07 05:33:32;;;;;;;19.05;14.45;;;14.40;99.90;;;;;;5072081;28;20393;-73
2023/07/07 05:36:03;;;;;;;18.40;14.23;;;14.50;99.90;;;;;;5072007;28;20032;-73
2023/07/07 05:38:29;;;;;;;17.98;13.70;;;14.60;99.90;;;;;;5049191;28;20098;-73
2023/07/07 05:40:55;;;;;;;17.13;13.73;;;14.70;99.90;;;;;;5066572;28;20519;-73
2023/07/07 05:43:22;;;;;;;20.25;14.40;;;14.80;99.90;;;;;;5063865;28;20029;-73
2023/07/07 05:46:01;;;;;;;21.13;13.32;;;14.90;99.90;;;;;;5056342;28;20036;-73
2023/07/07 05:48:28;;;;;;;17.73;13.82;;;15.00;99.90;;;;;;5058758;28;20037;-73
2023/07/07 05:51:03;;;;;;;18.58;12.98;;;15.10;99.90;;;;;;5060777;28;20123;-73
2023/07/07 05:53:29;;;;;;;18.25;13.18;;;15.20;99.90;;;;;;5064505;28;20496;-73
2023/07/07 05:56:03;;;;;;;16.98;12.63;;;15.30;99.90;;;;;;5061242;28;20107;-73
2023/07/07 05:58:29;;;;;;;20.05;13.13;;;15.40;99.90;;;;;;5067378;28;20150;-73
2023/07/07 06:00:54;;;;;;;15.27;12.35;;;15.50;99.90;;;;;;5071425;28;20116;-73
2023/07/07 06:03:20;;;;;;;15.90;11.75;;;15.70;99.90;;;;;;5054013;28;20040;-73
2023/07/07 06:05:46;;;;;;;18.75;12.57;;;15.80;99.90;;;;;;5069146;28;20119;-73
2023/07/07 06:08:11;;;;;;;15.40;11.63;;;15.90;99.90;;;;;;5048121;28;20562;-75
2023/07/07 06:10:37;;;;;;;16.77;11.88;;;16.10;99.90;;;;;;5054676;28;20123;-78
2023/07/07 06:13:03;;;;;;;16.23;11.43;;;16.30;99.90;;;;;;5065237;28;20037;-74
2023/07/07 06:15:30;;;;;;;14.77;11.30;;;16.40;99.90;;;;;;5055774;28;20492;-74
2023/07/07 06:17:56;;;;;;;17.98;11.27;;;16.50;99.90;;;;;;5071324;28;20067;-74
2023/07/07 06:20:21;;;;;;;15.45;10.02;;;16.70;99.90;;;;;;5037832;28;20060;-74
2023/07/07 06:22:47;;;;;;;14.93;10.23;;;16.80;99.90;;;;;;5058208;28;20033;-74
2023/07/07 06:25:13;;;;;;;13.23;9.90;;;16.90;99.90;;;;;;5067602;28;20043;-74
2023/07/07 06:27:38;;;;;;;15.10;9.55;;;17.00;99.90;;;;;;5068729;28;20086;-74
2023/07/07 06:30:04;;;;;;;15.10;9.27;;;17.10;99.90;;;;;;5053580;28;20078;-74
2023/07/07 06:32:30;;;;;;;13.02;9.10;;;17.30;99.90;;;;;;5066545;28;20036;-74
2023/07/07 06:34:55;;;;;;;15.15;8.63;;;17.40;99.90;;;;;;5070100;28;20094;-74
2023/07/07 06:37:21;;;;;;;14.48;8.75;;;17.50;99.90;;;;;;5047559;28;20048;-74
2023/07/07 06:39:47;;;;;;;14.88;8.85;;;17.50;99.90;;;;;;5060934;28;20103;-74
2023/07/07 06:42:12;;;;;;;12.65;7.82;;;17.60;99.90;;;;;;5051655;28;20028;-74
2023/07/07 06:44:38;;;;;;;12.90;8.63;;;17.80;99.90;;;;;;5036685;28;20037;-74
2023/07/07 06:47:05;;;;;;;15.40;7.82;;;17.90;99.90;;;;;;5078035;28;20430;-74
2023/07/07 06:49:31;;;;;;;15.65;8.45;;;18.00;99.90;;;;;;5066744;28;20075;-74
2023/07/07 06:51:56;;;;;;;10.82;7.55;;;18.10;99.90;;;;;;5053725;28;20390;-74
2023/07/07 06:54:22;;;;;;;15.13;7.65;;;18.20;99.90;;;;;;5071983;28;20036;-74
2023/07/07 06:56:48;;;;;;;10.85;6.70;;;18.30;99.90;;;;;;5052022;28;20028;-74
2023/07/07 06:59:13;;;;;;;14.05;6.75;;;18.40;99.90;;;;;;5038448;28;20093;-74
2023/07/07 07:01:40;;;;;;;10.52;6.78;;;18.50;99.90;;;;;;5054503;28;20045;-74
2023/07/07 07:04:05;;;;;;;11.57;6.95;;;18.60;99.90;;;;;;5041389;28;20036;-74
2023/07/07 07:06:31;;;;;;;11.07;6.43;;;18.70;99.90;;;;;;5063164;28;20040;-74
2023/07/07 07:08:57;;;;;;;12.48;6.60;;;18.80;99.90;;;;;;5044756;28;20098;-74
2023/07/07 07:11:22;;;;;;;11.18;6.38;;;18.90;99.90;;;;;;5091039;28;20042;-74
2023/07/07 07:13:48;;;;;;;10.73;6.30;;;18.90;99.90;;;;;;5072697;28;20094;-74
2023/07/07 07:16:14;;;;;;;10.60;5.50;;;19.10;99.90;;;;;;5073007;28;20031;-74
2023/07/07 07:18:39;;;;;;;10.00;5.32;;;19.20;99.90;;;;;;5043709;28;20040;-75
2023/07/07 07:21:05;;;;;;;10.43;5.07;;;19.30;99.90;;;;;;5055122;28;20041;-74
2023/07/07 07:23:30;;;;;;;10.27;4.90;;;19.30;99.90;;;;;;5069213;28;20032;-74
2023/07/07 07:25:56;;;;;;;8.10;4.65;;;19.40;99.90;;;;;;5064295;28;20047;-74
2023/07/07 07:28:21;;;;;;;10.52;5.10;;;19.50;99.90;;;;;;5039075;28;20080;-74
2023/07/07 07:30:48;;;;;;;12.27;4.50;;;19.60;99.90;;;;;;5057793;28;20045;-74
2023/07/07 07:33:19;;;;;;;8.77;4.38;;;19.60;99.90;;;;;;5055036;28;20538;-74
2023/07/07 07:35:45;;;;;;;8.98;4.57;;;19.70;99.90;;;;;;5053624;28;20033;-74
2023/07/07 07:38:11;;;;;;;8.70;4.50;;;19.70;99.90;;;;;;5046116;28;20119;-74
2023/07/07 07:40:37;;;;;;;9.43;4.15;;;19.70;99.90;;;;;;5071177;28;20120;-74
2023/07/07 07:43:03;;;;;;;11.82;4.07;;;19.90;99.90;;;;;;5066960;28;20111;-74
2023/07/07 07:45:28;;;;;;;7.53;3.83;;;20.10;99.90;;;;;;5057445;28;20427;-74
2023/07/07 07:47:54;;;;;;;7.00;3.53;;;20.00;99.90;;;;;;5071901;28;20468;-74
2023/07/07 07:50:21;;;;;;;9.43;3.60;;;20.20;99.90;;;;;;5075370;28;20388;-75
2023/07/07 07:52:48;;;;;;;9.20;3.25;;;20.30;99.90;;;;;;5052933;28;20051;-74
2023/07/07 07:55:14;;;;;;;7.63;3.10;;;20.40;99.90;;;;;;5052316;28;20119;-74
2023/07/07 07:57:41;;;;;;;7.70;3.40;;;20.50;99.90;;;;;;5046817;28;20059;-74
2023/07/07 08:00:07;;;;;;;8.48;3.53;;;20.50;99.90;;;;;;5051660;28;20103;-74
2023/07/07 08:02:32;;;;;;;8.90;3.13;;;20.60;99.90;;;;;;5063273;28;20485;-74
2023/07/07 08:04:58;;;;;;;9.38;2.95;;;20.70;99.90;;;;;;5059945;28;20041;-73
2023/07/07 08:07:25;;;;;;;7.72;3.13;;;20.80;99.90;;;;;;5062152;28;20047;-74
2023/07/07 08:09:51;;;;;;;10.20;3.05;;;20.80;99.90;;;;;;5057761;28;20037;-74
2023/07/07 08:12:16;;;;;;;8.38;3.05;;;20.90;99.90;;;;;;5073060;28;20123;-74
2023/07/07 08:14:42;;;;;;;6.13;2.75;;;21.00;99.90;;;;;;5050720;28;20104;-74
2023/07/07 08:17:11;;;;;;;6.55;2.85;;;20.90;99.90;;;;;;5062061;28;20527;-74
2023/07/07 08:19:38;;;;;;;6.78;3.10;;;21.10;99.90;;;;;;5053219;28;20478;-74
2023/07/07 08:22:07;;;;;;;8.75;2.80;;;21.10;99.90;;;;;;5070407;28;20033;-75
2023/07/07 08:24:41;;;;;;;7.75;2.97;;;21.30;99.90;;;;;;5067195;28;20044;-74
2023/07/07 08:27:08;;;;;;;6.55;2.63;;;21.30;99.90;;;;;;5048456;28;20044;-75
2023/07/07 08:29:34;;;;;;;6.30;2.60;;;21.50;99.90;;;;;;5082009;28;20041;-75
2023/07/07 08:31:59;;;;;;;6.18;2.50;;;21.60;99.90;;;;;;5048670;28;20047;-74
2023/07/07 08:34:26;;;;;;;5.18;2.50;;;21.60;99.90;;;;;;5058445;28;20037;-74
2023/07/07 08:36:58;;;;;;;6.68;2.63;;;21.60;99.90;;;;;;5064834;28;20045;-75
2023/07/07 08:39:26;;;;;;;6.57;2.72;;;21.70;99.90;;;;;;5055426;28;20048;-75
2023/07/07 08:41:54;;;;;;;6.18;2.50;;;21.80;99.90;;;;;;5063951;28;20286;-74
2023/07/07 08:44:22;;;;;;;8.00;2.88;;;21.90;99.90;;;;;;5073555;28;20500;-74
2023/07/07 08:47:04;;;;;;;7.70;2.72;;;21.90;99.90;;;;;;5054518;28;20558;-74
2023/07/07 08:49:39;;;;;;;7.63;2.92;;;22.00;99.90;;;;;;5071242;28;20047;-74
2023/07/07 08:52:29;;;;;;;6.85;3.13;;;22.00;99.90;;;;;;5055359;28;20059;-75
2023/07/07 08:55:29;;;;;;;6.32;2.45;;;22.20;99.90;;;;;;5054296;28;20029;-74
2023/07/07 08:58:19;;;;;;;6.97;2.63;;;22.30;99.90;;;;;;5062872;28;20099;-74
2023/07/07 09:01:11;;;;;;;7.05;2.30;;;22.30;99.90;;;;;;5050293;28;20457;-75
2023/07/07 09:03:45;;;;;;;5.95;2.50;;;22.50;99.90;;;;;;5053416;28;20036;-75
2023/07/07 09:06:19;;;;;;;7.03;2.38;;;22.50;99.90;;;;;;5062566;28;20048;-74
2023/07/07 09:08:55;;;;;;;7.13;2.63;;;22.60;99.90;;;;;;5053584;28;20496;-75
2023/07/07 09:11:56;;;;;;;8.90;2.60;;;22.70;99.90;;;;;;5068594;28;20032;-75
2023/07/07 09:14:22;;;;;;;4.93;2.22;;;22.80;99.90;;;;;;5057425;28;20047;-75
2023/07/07 09:16:49;;;;;;;5.68;2.58;;;22.90;99.60;;;;;;5055866;28;20036;-75
2023/07/07 09:19:20;;;;;;;6.47;2.50;;;22.90;99.50;;;;;;5045862;28;20587;-75
2023/07/07 09:21:47;;;;;;;7.07;2.47;;;22.90;99.90;;;;;;5066553;28;20043;-75
2023/07/07 09:24:34;;;;;;;5.13;2.60;;;23.00;99.90;;;;;;5064264;28;20045;-75
2023/07/07 09:27:06;;;;;;;7.50;2.58;;;23.00;99.90;;;;;;5047857;28;20558;-75
2023/07/07 09:29:32;;;;;;;5.78;2.63;;;23.10;99.30;;;;;;5071433;28;20056;-75
2023/07/07 09:32:02;;;;;;;6.00;2.40;;;23.10;98.70;;;;;;5059292;28;20113;-75
2023/07/07 09:34:29;;;;;;;6.70;2.42;;;23.10;99.90;;;;;;5074198;28;20037;-75
2023/07/07 09:37:21;;;;;;;6.18;2.22;;;23.20;99.90;;;;;;5049631;28;20123;-75
2023/07/07 09:40:14;;;;;;;6.63;2.60;;;23.10;99.90;;;;;;5059870;28;20492;-75
2023/07/07 09:42:46;;;;;;;5.78;2.60;;;23.20;99.90;;;;;;5070035;28;20075;-75
2023/07/07 09:45:25;;;;;;;6.03;2.78;;;23.20;99.90;;;;;;5041819;28;20047;-75
2023/07/07 09:48:01;;;;;;;9.10;2.80;;;23.20;99.90;;;;;;5070003;28;20527;-75
2023/07/07 09:50:55;;;;;;;6.45;2.78;;;23.30;99.90;;;;;;5035675;28;20505;-75
2023/07/07 09:53:30;;;;;;;7.07;2.40;;;23.40;99.90;;;;;;5043298;28;20064;-75
2023/07/07 09:55:56;;;;;;;5.45;2.67;;;23.40;99.90;;;;;;5035928;28;20060;-75
2023/07/07 09:58:34;;;;;;;7.00;2.80;;;23.50;99.90;;;;;;5060293;28;20082;-75
2023/07/07 10:01:02;;;;;;;7.93;3.00;;;23.50;99.90;;;;;;5056149;28;20036;-75
2023/07/07 10:03:40;;;;;;;6.13;2.35;;;23.60;99.90;;;;;;5071993;28;20045;-75
2023/07/07 10:06:36;;;;;;;7.20;2.65;;;23.80;99.20;;;;;;5059972;28;20044;-75
2023/07/07 10:09:03;;;;;;;7.35;2.70;;;23.70;99.80;;;;;;5068824;28;20039;-75
2023/07/07 10:11:33;;;;;;;6.63;3.00;;;23.70;99.10;;;;;;5073344;28;20036;-75
2023/07/07 10:14:02;;;;;;;7.43;2.67;;;23.70;98.00;;;;;;5052504;28;20041;-75
2023/07/07 10:16:30;;;;;;;5.50;2.40;;;23.70;97.20;;;;;;5046532;28;20028;-75
2023/07/07 10:19:03;;;;;;;9.27;2.50;;;24.00;97.50;;;;;;5064743;28;20040;-75
2023/07/07 10:21:29;;;;;;;7.05;2.55;;;24.00;97.80;;;;;;5072863;28;20046;-75
2023/07/07 10:23:55;;;;;;;5.43;2.50;;;24.10;96.30;;;;;;5055579;28;20135;-75
2023/07/07 10:26:20;;;;;;;5.72;2.40;;;24.10;96.70;;;;;;5053330;28;20040;-75
2023/07/07 10:28:47;;;;;;;5.43;2.40;;;24.10;97.30;;;;;;5048754;28;20045;-75
2023/07/07 10:31:14;;;;;;;5.90;2.70;;;24.20;97.30;;;;;;5053329;28;20045;-75
2023/07/07 10:33:41;;;;;;;6.00;2.90;;;24.30;98.30;;;;;;5061372;28;20037;-75
2023/07/07 10:36:18;;;;;;;8.50;2.85;;;24.30;98.10;;;;;;5068083;28;20028;-75
2023/07/07 10:38:47;;;;;;;6.32;2.40;;;24.30;98.40;;;;;;5051353;28;20029;-75
2023/07/07 10:41:12;;;;;;;5.85;2.47;;;24.30;96.60;;;;;;5067097;28;20032;-75
2023/07/07 10:43:38;;;;;;;6.80;2.70;;;24.40;97.40;;;;;;5057772;28;20033;-79
2023/07/07 10:46:11;;;;;;;7.15;2.85;;;24.40;97.20;;;;;;5058509;28;20060;-86
2023/07/07 10:48:44;;;;;;;6.30;2.75;;;24.30;94.90;;;;;;5066426;28;20037;-85
2023/07/07 10:51:35;;;;;;;6.95;2.60;;;24.40;97.40;;;;;;5077572;28;20048;-76
2023/07/07 10:54:20;;;;;;;7.55;3.00;;;24.50;94.30;;;;;;5044188;28;20408;-76
2023/07/07 10:56:50;;;;;;;7.20;2.45;;;24.50;92.70;;;;;;5033851;28;20052;-75
2023/07/07 10:59:27;;;;;;;4.22;2.30;;;24.60;96.10;;;;;;5050919;28;20651;-75
2023/07/07 11:02:08;;;;;;;6.20;2.70;;;24.70;95.70;;;;;;5073041;28;20037;-75
2023/07/07 11:04:43;;;;;;;6.00;2.70;;;24.60;93.70;;;;;;5047649;28;20480;-75
2023/07/07 11:07:34;;;;;;;6.78;2.85;;;24.60;95.80;;;;;;5060208;28;20095;-80
2023/07/07 11:10:14;;;;;;;6.72;2.40;;;24.60;95.80;;;;;;5051267;28;20049;-79
2023/07/07 11:12:55;;;;;;;6.28;2.70;;;24.60;95.00;;;;;;5069238;28;20131;-77
2023/07/07 11:15:58;;;;;;;8.63;3.33;;;24.50;95.10;;;;;;5061509;28;20420;-81
2023/07/07 11:18:58;;;;;;;5.63;2.65;;;24.60;94.40;;;;;;5053368;28;20095;-75
2023/07/07 11:21:55;;;;;;;6.47;2.70;;;24.50;94.80;;;;;;5039920;28;20068;-75
2023/07/07 11:24:40;;;;;;;7.20;2.47;;;24.50;94.50;;;;;;5050919;28;20408;-78
2023/07/07 11:27:15;;;;;;;5.63;2.58;;;24.70;93.30;;;;;;5036314;28;20044;-77
2023/07/07 11:29:49;;;;;;;6.13;2.42;;;24.70;93.50;;;;;;5061871;28;20052;-76
2023/07/07 11:32:25;;;;;;;6.45;2.40;;;24.70;94.20;;;;;;5046304;28;20076;-76
2023/07/07 11:35:30;;;;;;;5.97;2.63;;;24.70;94.40;;;;;;5075202;28;20045;-76
2023/07/07 11:38:29;;;;;;;5.75;2.88;;;24.80;93.60;;;;;;5067317;28;20120;-76
2023/07/07 11:41:11;;;;;;;7.00;2.75;;;24.80;93.70;;;;;;5069507;28;20043;-76
2023/07/07 11:43:58;;;;;;;5.40;2.70;;;24.70;93.80;;;;;;5051086;28;20449;-76
2023/07/07 11:46:59;;;;;;;8.45;2.30;;;24.80;91.70;;;;;;5051224;28;20044;-76
2023/07/07 11:49:48;;;;;;;6.13;2.47;;;24.80;92.50;;;;;;5064699;28;20055;-76
2023/07/07 11:52:27;;;;;;;6.57;2.90;;;24.80;93.00;;;;;;5067427;28;20279;-76
2023/07/07 11:55:14;;;;;;;5.05;2.30;;;24.80;92.20;;;;;;5068860;28;20115;-77
2023/07/07 11:57:58;;;;;;;5.97;2.50;;;24.80;92.90;;;;;;5057781;28;20090;-76
2023/07/07 12:00:40;;;;;;;6.60;2.55;;;24.90;92.00;;;;;;5063374;28;20032;-76
2023/07/07 12:03:40;;;;;;;4.70;2.15;;;24.80;90.80;;;;;;5071971;28;20102;-76
2023/07/07 12:06:21;;;;;;;6.78;2.67;;;24.80;89.60;;;;;;5073309;28;20040;-76
2023/07/07 12:09:01;;;;;;;6.15;2.50;;;24.80;91.60;;;;;;5056499;28;20052;-76
2023/07/07 12:11:31;;;;;;;6.15;2.72;;;24.80;93.50;;;;;;5053160;28;20048;-76
2023/07/07 12:14:06;;;;;;;5.45;2.90;;;24.90;91.00;;;;;;5049352;28;20040;-76
2023/07/07 12:16:34;;;;;;;6.07;2.55;;;24.80;91.10;;;;;;5046624;28;20031;-85
2023/07/07 12:19:31;;;;;;;5.97;2.38;;;24.80;90.90;;;;;;5072109;28;20048;-86
2023/07/07 12:21:59;;;;;;;7.28;2.60;;;25.00;85.90;;;;;;5054165;28;20041;-76
2023/07/07 12:24:38;;;;;;;7.50;2.60;;;25.00;89.80;;;;;;5037607;28;20041;-77
2023/07/07 12:27:33;;;;;;;6.40;2.65;;;25.00;89.80;;;;;;5037238;28;20128;-77
2023/07/07 12:30:00;;;;;;;6.20;2.72;;;25.10;85.40;;;;;;5068720;28;20497;-76
2023/07/07 12:32:26;;;;;;;6.82;2.67;;;25.10;86.90;;;;;;5039948;28;20095;-76
2023/07/07 12:35:07;;;;;;;6.22;2.30;;;25.20;89.00;;;;;;5037343;28;20501;-76
2023/07/07 12:37:34;;;;;;;6.13;2.70;;;25.20;89.20;;;;;;5053799;28;20041;-76
2023/07/07 12:40:11;;;;;;;8.23;2.78;;;25.20;85.10;;;;;;5037011;28;20036;-76
2023/07/07 12:42:39;;;;;;;5.30;2.67;;;25.20;82.70;;;;;;5036914;28;20041;-76
2023/07/07 12:45:25;;;;;;;6.32;2.47;;;25.20;82.80;;;;;;5055318;28;20080;-77
2023/07/07 12:47:58;;;;;;;6.60;2.95;;;25.20;88.30;;;;;;5036647;28;20040;-76
2023/07/07 12:50:38;;;;;;;4.82;2.60;;;25.30;85.00;;;;;;5066417;28;20067;-76
2023/07/07 12:53:10;;;;;;;6.43;2.58;;;25.20;82.40;;;;;;5082123;28;20047;-76
2023/07/07 12:55:38;;;;;;;5.65;2.47;;;25.10;83.00;;;;;;5069217;28;20182;-76
2023/07/07 12:58:31;;;;;;;6.82;2.58;;;25.10;82.40;;;;;;5065939;28;20029;-75
2023/07/07 13:01:14;;;;;;;6.55;2.65;;;25.00;79.00;;;;;;5036720;28;20041;-76
2023/07/07 13:04:01;;;;;;;6.05;2.35;;;24.90;79.90;;;;;;5071224;28;20040;-76